Timeline UpdatesTrip UpdatesNews PostsPvt PostsTravel TipsAdmin PostsConv PostsFollowed PostsChat RequestsBlog PostsPNR Posts

Disclaimer
Search
 
 
Sat Apr 19, 2014 21:17:20 ISTHomeTrainsΣChainsAtlasPNRForumGalleryNewsFAQTripsMembersLoginFeedback
No Recent News for this Train
Other Trains in the News **new
Latest...
Additional stoppage of two minutes to the train no. 18101/18102 Jammu Tawi- Tata Nagar- Jammu Tawi Express at Ray station o­n experimental basis for six months from 02.10.2013. The 18101 Tata Nagar- Jammu Tawi Express train will reach Ray station at 08.22 p.m
Tue Oct 01, 2013 (12:02PM)
⇐ Return Journey: Train# 18102

18101/Tatanagar-Jammu Tawi MURI Express

Apr 08 (12:26PM)
Change Departure Station:
Change Arrival Station:
Post a Train Travel TipPost a Train Travel Tip **new
Post a Comment/Question/Picture/VideoPost a Comment/Question/Picture/Video
Pantry/Catering
✓ Pantry Car Avbl
✓ Catering Avbl
Pantry Car is available from Muri To Jammu Tawi because...
Read more...
Pantry Car is attached in Rourkela-Jammu Tawi Exp
Loco/Rake Reversals
ASR/Amritsar Junction (5); PTK/Pathankot Junction (4);
RSA - Rake Sharing
None
Rake/Coach Composition
SLR-GEN-GEN-ST11-ST10-ST9-ST8-ST7-B2-SLR
Loco
TATA-BRKA WAM-4 TATA,BRKA-ALD WDM-2/3A PTRU,ALD-ASR WAP-1/7 GZB,ASR-JAT WDM-2/3A LDH Author: South...
Read more...
Eastern Railways Fan; Entry:532631
News    PNR    Forum    Time-Table    Availability    Fare Chart    Map    Arr/Dep History    Trips    Gallery    ΣChains    X/O    Timeline    
Travel Time: 27h 0m    38 halts    Distance: 1245 km    Avg Speed: 46 km/hr
Type: Mail/Express
Zone: SER/South Eastern
Departs @ 14:50 (Avg on time)
Platform# 1
SMTWTFS
Tatanagar Junction/TATA 
Arrives @ 17:50 +1 night (Avg 3h 36m late)
Platform# 3
SMTWTFS
Aligarh Junction/ALJN 

38 halts. 163 intermediate Stations between Tatanagar Junction and Aligarh Junction

Show ALL intermediate Stations  Show Old Time-Table

#CodeStation NameX/OArrivesAvgDepartsAvgHaltPFDay#KmSpeedElevZoneAddress
1TATA»Tatanagar Junction (5)»  -14:50+0110.040164mSER91-657-2423026, Jharkhand
2CNIChandil Junction (4)  15:42+115:44+22m--134.861178mSERChandil, Jharkhand
3MURIMuri Junction (3)X16:50+2117:30+2840m31102.453257mSER06522-222444, Jharkhand
4RMTRamgarh Cantt. (1)O  18:30+2518:35+265m11155.48352mSERRamgarh District, Jharkhand
5BRKABarkakana Junction (4)19:15+1319:35+1420m31160.758341mECR0653-255225, Jharkhand
6PTRUPatratu (3)  19:54+2219:55+251m21179.160373mECRDistt: Ramgarh, Jharkhand
7RAYRay (2)20:22+2620:24+262m--1206.2109447mECRRanchi, Jharkhand
8KLREKhalari (3)  20:29+3120:30+321m--1215.363459mECRKhelari, Jharkhand
9TORITori (2)  20:57+3820:58+391m21243.556515mECRChandwa, Jharkhand
10LTHRLatehar (2)  21:33+3421:34+351m21276.060381mECRLatehar, Jharkhand
11BRWDBarwadih Junction (3)  22:14+3422:19+345m11316.178295mECRDist. Latehar, Jharkhand
12DTODaltonGanj (3)X  22:40+4122:45+415m11343.659234mECR230812, Jharkhand
13GHDGarhwa Road Junction (3)  23:19+4023:21+412m11376.967188mECRPalamu, Jharkhand
14GHQGarhwa (1)  23:30+4923:31+501m11387.060211mECRGarhwa, Jharkhand
15NUQNagar Untari (1)O  00:05+5200:06+541m12421.021248mECRGarhwa, Jharkhand
16WDMWyndhamGanj (1)XO  00:39+3700:40+391m12432.735243mECRSonebhadra, Uttar Pradesh
17DXNDuddhinagar  01:19+2701:20+291m22455.337250mECRSonebhadra, Uttar Pradesh
18RNQRenukut (3)  01:54+2201:55+281m12476.429310mECRSonbhadra, Uttar Pradesh
19CPUChopan (3)  03:20+703:30+910m22518.145194mECRSH 5A Sonebhadra, Uttar Pradesh
20CUKChurk (1)  03:59+804:00+91m12539.921316mNCRState Highway 14, Uttar Pradesh
21RBGJRoberts Ganj (1)  04:14+1104:15+121m12544.734318mNCRRobertsganj, Uttar Pradesh
22CARChunar Junction (5)XO  06:30+1106:40+1610m42620.76585mNCRChunar Junction, Uttar Pradesh
23MZPMirzapur (3)X  07:09+4307:10+451m--2652.04088mNCRMirzapur, Uttar Pradesh
24BDLVindhyachal (3)  07:21+4807:22+491m--2659.37588mNCRMirzapur, Uttar Pradesh
25MJAMeja Road (4)X  07:57+1:0907:58+1:101m--2703.05594mNCRDistrict Allahabad, Uttar Pradesh
26ALDAllahabad Junction (10)X08:40+1:5109:05+1:5625m32741.579100mNCRAllahabad 211003, Uttar Pradesh
27FTPFatehpur (3)  10:34+2:0810:35+2:111m32858.244120mNCRFatehpur, Uttar Pradesh
28CNBKanpur Central (10)X  12:20+1:5712:30+2:0210m72935.836128mNCRKanpur, Uttar Pradesh
29PNKPanki (3)X  12:49+2:0912:50+2:111m32947.462129mNCRKANPUR-208 020, Uttar Pradesh
30RURARura (4)XO  13:22+2:1613:23+2:181m--2980.267137mNCRJhinjhak, Uttar Pradesh
31JJKJhinjhak (3)X  13:40+2:1713:41+2:201m32999.252140mNCRAuraiya, Uttar Pradesh
32PHDPhaphund (4)  14:04+2:2214:05+2:251m--21019.078146mNCRdist. Auraiya, Uttar Pradesh
33BNTBharthana (3)  14:33+2:2814:34+2:301m--21055.352147mNCRBharthana, Uttar Pradesh
34ETWEtawah (5)  14:57+2:3114:58+2:341m221075.298154mNCRDistt. Etawah, Uttar Pradesh
35SKBShikohabad Junction (4)X  15:32+2:5015:33+2:551m321130.666166mNCRDistrict Firozabad, Uttar Pradesh
36FZDFirozabad (4)XO  15:51+2:5615:52+3:011m321150.528164mNCRFirozabad, Uttar Pradesh
37TDLTundla Junction (4)  16:28+2:5916:38+2:5710m221167.070167mNCRDistt.Firozabad, Uttar Pradesh
38JLSJalesar Road (1)  17:02+3:0617:03+3:091m121194.955172mNCRMDR 106W, Uttar Pradesh
39HRSHathras Junction (3)X  17:25+3:1217:26+3:151m221215.075183mNCRMahamaya Nagar(05722-242803), Uttar Pradesh
40ALJN•Aligarh Junction (4)•X  17:50+3:3617:55+3:375m321245.287192mNCRAligarh, Uttar Pradesh
41KRJKhurja Junction (4)O  18:25+3:4718:27+3:472m--21288.729199mNCRBulandshahr, Uttar Pradesh
42GZBGhaziabad Junction (6)X  20:35+3:1820:40+3:165m221351.322217mNRGhaziabad, Uttar Pradesh
43DLIOld Delhi Junction (16)  21:35+3:1122:00+3:0925m1021371.413219mNRNear Chandni Chowk Metro Station, Delhi NCT
44SZMDelhi Sabzi Mandi (2)X  22:14+3:1322:15+3:131m--21374.467220mNRGulabi Bagh, Delhi NCT
45SNPSonipat (3)O  22:51+3:1722:52+3:201m--21414.743225mNRSonipat, Haryana
46PNPPanipat Junction (5)  23:55+3:0723:57+3:192m321459.969235mNRPanipat, Haryana
47KUNKarnal (3)  00:27+3:0600:28+3:061m231494.336253mNRKarnal, Haryana
48KKDEKurukshetra Junction (3)X  01:23+2:4801:25+2:592m--31527.463260mNRKurukshetra, Haryana
49SHDMShahbad Markanda (2)X  01:46+2:3201:47+2:341m231549.625267mNRShahabad Markanda, Haryana
50UMBAmbala Cantt. Junction (7)XO  02:35+2:2602:45+2:2710m731569.532278mNRAmbala 133001, Haryana
51UBCAmbala City (3)XO  02:59+2:2903:00+2:301m331577.172273mNRNH-1, Haryana
52RPJRajpura Junction (3)X  03:17+2:3103:18+2:341m131597.553272mNRNH-1, Punjab
53LDHLudhiana Junction (7)X  04:55+2:1905:05+2:3510m331683.131246mNRLudhiana 141001, Punjab
54PHRPhillaur Junction (3)  05:30+2:2805:31+2:291m231696.268246mNRPhillaur, Punjab
55PGWPhagwara Junction (3)X  05:51+2:2705:52+2:281m231718.844245mNRPhagwara, Punjab
56JRCJalandhar Cantt. Junction (3)X  06:14+2:2406:16+2:242m131735.132239mNRNear Rama Mandi, Punjab
57JUCJalandhar City Junction (5)X  06:25+2:2406:30+2:275m131739.957239mNRJalandhar 144001, Punjab
58BEASBeas Junction (2)  07:08+2:2207:09+2:231m131776.063238mNRBeas, Punjab
59ASRAmritsar Junction (5)07:50+2:2608:20+2:2730m231819.047233mNRAmritsar 143002, Punjab
60BATBatala Junction (2)  09:10+2:2509:12+2:422m--31858.159250mNRBatala, Punjab
61DHWDhariwal (1)  09:31+2:2809:32+2:291m131876.864259mNRDhariwal, Punjab
62GSPGurdaspur (2)  09:45+2:3109:46+2:321m--31890.861265mNRGurdaspur, Punjab
63DNNDina Nagar (2)  09:57+2:3409:58+2:361m--31901.924273mNRDinanagar, Punjab
64PTKPathankot Junction (4)X11:00+2:1411:20+2:1720m--31926.248331mNRnear ISBT, Punjab
65KTHUKathua (2)X  11:49+2:3011:50+2:311m131949.638396mNRdistt. kathua, Jammu and Kashmir
66HRNRHira Nagar (2)T12:36+2:1912:38+2:212m131978.449380mNRHiranagar, Jammu and Kashmir
67SMBXSamba (2)O  12:56+2:1512:57+2:181m231993.221365mNRDist. Samba, Jammu and Kashmir
68VJPJVijaypur Jammu (2)  13:29+2:0213:30+2:041m132004.632353mNRdistt. samba, Jammu and Kashmir
69JATJammu Tawi (3)  14:10+1:54-332025.9-337mNRJammu 180002, Jammu and Kashmir
Scroll to Top
Scroll to Bottom